sensor_id;sensor_type;location;lat;lon;timestamp;temperature;humidity
19256;DHT22;9762;52.490;13.410;2022-07-29T00:00:51;21.10;65.10
19256;DHT22;9762;52.490;13.410;2022-07-29T00:03:16;21.00;65.30
19256;DHT22;9762;52.490;13.410;2022-07-29T00:05:42;21.00;65.60
19256;DHT22;9762;52.490;13.410;2022-07-29T00:08:08;20.90;65.70
19256;DHT22;9762;52.490;13.410;2022-07-29T00:10:34;20.90;66.00
19256;DHT22;9762;52.490;13.410;2022-07-29T00:13:00;20.90;66.00
19256;DHT22;9762;52.490;13.410;2022-07-29T00:15:26;20.90;66.20
19256;DHT22;9762;52.490;13.410;2022-07-29T00:17:51;20.90;66.40
19256;DHT22;9762;52.490;13.410;2022-07-29T00:20:17;20.90;66.60
19256;DHT22;9762;52.490;13.410;2022-07-29T00:22:43;20.80;66.70
19256;DHT22;9762;52.490;13.410;2022-07-29T00:25:09;20.80;66.80
19256;DHT22;9762;52.490;13.410;2022-07-29T00:27:36;20.80;67.10
19256;DHT22;9762;52.490;13.410;2022-07-29T00:30:03;20.80;67.10
19256;DHT22;9762;52.490;13.410;2022-07-29T00:32:29;20.80;67.40
19256;DHT22;9762;52.490;13.410;2022-07-29T00:34:55;20.80;67.60
19256;DHT22;9762;52.490;13.410;2022-07-29T00:37:39;20.80;67.60
19256;DHT22;9762;52.490;13.410;2022-07-29T00:40:05;20.80;67.90
19256;DHT22;9762;52.490;13.410;2022-07-29T00:42:30;20.70;68.80
19256;DHT22;9762;52.490;13.410;2022-07-29T00:44:56;20.70;67.90
19256;DHT22;9762;52.490;13.410;2022-07-29T00:47:21;20.70;68.30
19256;DHT22;9762;52.490;13.410;2022-07-29T00:49:47;20.70;68.30
19256;DHT22;9762;52.490;13.410;2022-07-29T00:52:13;20.60;68.80
19256;DHT22;9762;52.490;13.410;2022-07-29T00:54:39;20.60;68.90
19256;DHT22;9762;52.490;13.410;2022-07-29T00:57:07;20.50;69.20
19256;DHT22;9762;52.490;13.410;2022-07-29T00:59:33;20.50;69.30
19256;DHT22;9762;52.490;13.410;2022-07-29T01:01:59;20.50;69.60
19256;DHT22;9762;52.490;13.410;2022-07-29T01:04:24;20.50;69.60
19256;DHT22;9762;52.490;13.410;2022-07-29T01:06:50;20.50;69.70
19256;DHT22;9762;52.490;13.410;2022-07-29T01:09:18;20.50;69.90
19256;DHT22;9762;52.490;13.410;2022-07-29T01:11:46;20.50;70.00
19256;DHT22;9762;52.490;13.410;2022-07-29T01:14:14;20.50;70.10
19256;DHT22;9762;52.490;13.410;2022-07-29T01:16:48;20.50;70.10
19256;DHT22;9762;52.490;13.410;2022-07-29T01:23:01;20.50;70.20
19256;DHT22;9762;52.490;13.410;2022-07-29T01:25:54;20.50;70.20
19256;DHT22;9762;52.490;13.410;2022-07-29T01:31:20;20.50;70.40
19256;DHT22;9762;52.490;13.410;2022-07-29T01:33:52;20.50;70.50
19256;DHT22;9762;52.490;13.410;2022-07-29T01:39:12;20.40;70.70
19256;DHT22;9762;52.490;13.410;2022-07-29T01:41:48;20.30;70.90
19256;DHT22;9762;52.490;13.410;2022-07-29T01:44:22;20.30;71.10
19256;DHT22;9762;52.490;13.410;2022-07-29T01:46:54;20.30;71.40
19256;DHT22;9762;52.490;13.410;2022-07-29T01:49:25;20.20;71.40
19256;DHT22;9762;52.490;13.410;2022-07-29T01:51:57;20.20;71.80
19256;DHT22;9762;52.490;13.410;2022-07-29T01:54:46;20.20;71.80
19256;DHT22;9762;52.490;13.410;2022-07-29T01:57:15;20.20;72.10
19256;DHT22;9762;52.490;13.410;2022-07-29T01:59:46;20.10;72.40
19256;DHT22;9762;52.490;13.410;2022-07-29T02:02:14;20.10;77.50
19256;DHT22;9762;52.490;13.410;2022-07-29T02:04:41;20.00;76.50
19256;DHT22;9762;52.490;13.410;2022-07-29T02:07:10;20.00;76.10
19256;DHT22;9762;52.490;13.410;2022-07-29T02:09:39;20.00;76.20
19256;DHT22;9762;52.490;13.410;2022-07-29T02:12:06;20.00;76.50
19256;DHT22;9762;52.490;13.410;2022-07-29T02:14:37;20.00;76.50
19256;DHT22;9762;52.490;13.410;2022-07-29T02:17:03;20.00;76.40
19256;DHT22;9762;52.490;13.410;2022-07-29T02:19:31;20.00;75.80
19256;DHT22;9762;52.490;13.410;2022-07-29T02:21:58;20.00;75.50
19256;DHT22;9762;52.490;13.410;2022-07-29T02:24:25;20.00;75.30
19256;DHT22;9762;52.490;13.410;2022-07-29T02:26:53;20.00;75.00
19256;DHT22;9762;52.490;13.410;2022-07-29T02:29:23;20.00;74.70
19256;DHT22;9762;52.490;13.410;2022-07-29T02:31:50;20.00;74.50
19256;DHT22;9762;52.490;13.410;2022-07-29T02:34:17;20.00;74.60
19256;DHT22;9762;52.490;13.410;2022-07-29T02:36:44;20.00;74.40
19256;DHT22;9762;52.490;13.410;2022-07-29T02:39:12;19.90;74.50
19256;DHT22;9762;52.490;13.410;2022-07-29T02:41:43;19.90;74.50
19256;DHT22;9762;52.490;13.410;2022-07-29T02:44:11;20.00;74.30
19256;DHT22;9762;52.490;13.410;2022-07-29T02:46:43;20.00;74.10
19256;DHT22;9762;52.490;13.410;2022-07-29T02:49:16;20.00;74.00
19256;DHT22;9762;52.490;13.410;2022-07-29T02:51:53;20.00;74.00
19256;DHT22;9762;52.490;13.410;2022-07-29T02:54:38;20.00;75.00
19256;DHT22;9762;52.490;13.410;2022-07-29T02:57:11;19.90;74.30
19256;DHT22;9762;52.490;13.410;2022-07-29T02:59:42;19.90;74.30
19256;DHT22;9762;52.490;13.410;2022-07-29T03:02:09;19.90;74.30
19256;DHT22;9762;52.490;13.410;2022-07-29T03:04:37;19.90;74.40
19256;DHT22;9762;52.490;13.410;2022-07-29T03:07:05;19.90;74.40
19256;DHT22;9762;52.490;13.410;2022-07-29T03:09:31;19.90;74.50
19256;DHT22;9762;52.490;13.410;2022-07-29T03:11:58;19.80;74.40
19256;DHT22;9762;52.490;13.410;2022-07-29T03:14:24;19.80;74.30
19256;DHT22;9762;52.490;13.410;2022-07-29T03:16:51;19.80;74.20
19256;DHT22;9762;52.490;13.410;2022-07-29T03:19:18;19.80;74.40
19256;DHT22;9762;52.490;13.410;2022-07-29T03:21:44;19.90;74.20
19256;DHT22;9762;52.490;13.410;2022-07-29T03:24:09;19.90;74.10
19256;DHT22;9762;52.490;13.410;2022-07-29T03:26:35;19.90;74.10
19256;DHT22;9762;52.490;13.410;2022-07-29T03:29:00;20.00;74.20
19256;DHT22;9762;52.490;13.410;2022-07-29T03:31:26;19.90;74.10
19256;DHT22;9762;52.490;13.410;2022-07-29T03:33:51;19.90;74.20
19256;DHT22;9762;52.490;13.410;2022-07-29T03:36:17;19.80;74.20
19256;DHT22;9762;52.490;13.410;2022-07-29T03:38:44;19.80;74.40
19256;DHT22;9762;52.490;13.410;2022-07-29T03:41:11;19.80;74.50
19256;DHT22;9762;52.490;13.410;2022-07-29T03:43:40;19.80;74.60
19256;DHT22;9762;52.490;13.410;2022-07-29T03:46:07;19.80;74.40
19256;DHT22;9762;52.490;13.410;2022-07-29T03:48:37;19.80;74.50
19256;DHT22;9762;52.490;13.410;2022-07-29T03:51:04;19.80;74.40
19256;DHT22;9762;52.490;13.410;2022-07-29T03:53:30;19.80;74.30
19256;DHT22;9762;52.490;13.410;2022-07-29T03:55:59;19.80;74.40
19256;DHT22;9762;52.490;13.410;2022-07-29T03:58:27;19.80;74.40
19256;DHT22;9762;52.490;13.410;2022-07-29T04:00:54;19.80;74.40
19256;DHT22;9762;52.490;13.410;2022-07-29T04:03:21;19.80;74.50
19256;DHT22;9762;52.490;13.410;2022-07-29T04:06:07;19.80;74.50
19256;DHT22;9762;52.490;13.410;2022-07-29T04:08:33;19.80;74.50
19256;DHT22;9762;52.490;13.410;2022-07-29T04:11:00;19.80;74.60
19256;DHT22;9762;52.490;13.410;2022-07-29T04:13:26;19.80;74.60
19256;DHT22;9762;52.490;13.410;2022-07-29T04:15:52;19.80;74.80
19256;DHT22;9762;52.490;13.410;2022-07-29T04:18:17;19.80;74.80
19256;DHT22;9762;52.490;13.410;2022-07-29T04:20:43;19.80;74.90
19256;DHT22;9762;52.490;13.410;2022-07-29T04:23:08;19.80;74.90
19256;DHT22;9762;52.490;13.410;2022-07-29T04:25:37;19.80;74.90
19256;DHT22;9762;52.490;13.410;2022-07-29T04:28:03;19.80;75.20
19256;DHT22;9762;52.490;13.410;2022-07-29T04:30:30;19.80;75.50
19256;DHT22;9762;52.490;13.410;2022-07-29T04:32:56;19.70;75.60
19256;DHT22;9762;52.490;13.410;2022-07-29T04:35:21;19.70;75.70
19256;DHT22;9762;52.490;13.410;2022-07-29T04:37:47;19.70;75.70
19256;DHT22;9762;52.490;13.410;2022-07-29T04:40:13;19.80;75.90
19256;DHT22;9762;52.490;13.410;2022-07-29T04:42:39;19.70;75.80
19256;DHT22;9762;52.490;13.410;2022-07-29T04:45:05;19.80;75.90
19256;DHT22;9762;52.490;13.410;2022-07-29T04:47:31;19.80;76.00
19256;DHT22;9762;52.490;13.410;2022-07-29T04:49:56;19.80;75.90
19256;DHT22;9762;52.490;13.410;2022-07-29T04:52:22;19.80;75.80
19256;DHT22;9762;52.490;13.410;2022-07-29T04:54:48;19.90;75.80
19256;DHT22;9762;52.490;13.410;2022-07-29T04:57:14;19.90;75.60
19256;DHT22;9762;52.490;13.410;2022-07-29T04:59:40;20.00;75.60
19256;DHT22;9762;52.490;13.410;2022-07-29T05:02:05;20.00;75.60
19256;DHT22;9762;52.490;13.410;2022-07-29T05:04:31;20.00;75.30
19256;DHT22;9762;52.490;13.410;2022-07-29T05:06:56;20.10;75.30
19256;DHT22;9762;52.490;13.410;2022-07-29T05:09:22;20.10;74.90
19256;DHT22;9762;52.490;13.410;2022-07-29T05:11:47;20.20;74.80
19256;DHT22;9762;52.490;13.410;2022-07-29T05:14:13;20.20;74.60
19256;DHT22;9762;52.490;13.410;2022-07-29T05:16:39;20.30;74.60
19256;DHT22;9762;52.490;13.410;2022-07-29T05:19:05;20.30;74.50
19256;DHT22;9762;52.490;13.410;2022-07-29T05:21:31;20.40;74.40
19256;DHT22;9762;52.490;13.410;2022-07-29T05:23:57;20.40;74.00
19256;DHT22;9762;52.490;13.410;2022-07-29T05:26:23;20.50;73.90
19256;DHT22;9762;52.490;13.410;2022-07-29T05:28:48;20.50;73.80
19256;DHT22;9762;52.490;13.410;2022-07-29T05:31:14;20.50;73.70
19256;DHT22;9762;52.490;13.410;2022-07-29T05:33:40;20.50;73.70
19256;DHT22;9762;52.490;13.410;2022-07-29T05:36:06;20.50;73.60
19256;DHT22;9762;52.490;13.410;2022-07-29T05:38:35;20.50;73.50
19256;DHT22;9762;52.490;13.410;2022-07-29T05:41:01;20.60;73.40
19256;DHT22;9762;52.490;13.410;2022-07-29T05:43:27;20.60;73.10
19256;DHT22;9762;52.490;13.410;2022-07-29T05:45:53;20.60;73.00
19256;DHT22;9762;52.490;13.410;2022-07-29T05:48:18;20.60;72.90
19256;DHT22;9762;52.490;13.410;2022-07-29T05:50:44;20.60;72.70
19256;DHT22;9762;52.490;13.410;2022-07-29T05:53:10;20.60;72.70
19256;DHT22;9762;52.490;13.410;2022-07-29T05:55:35;20.70;72.80
19256;DHT22;9762;52.490;13.410;2022-07-29T05:58:01;20.70;72.70
19256;DHT22;9762;52.490;13.410;2022-07-29T06:00:26;20.70;72.60
19256;DHT22;9762;52.490;13.410;2022-07-29T06:02:52;20.70;72.50
19256;DHT22;9762;52.490;13.410;2022-07-29T06:05:17;20.80;72.50
19256;DHT22;9762;52.490;13.410;2022-07-29T06:07:43;20.80;72.40
19256;DHT22;9762;52.490;13.410;2022-07-29T06:10:08;20.90;72.30
19256;DHT22;9762;52.490;13.410;2022-07-29T06:12:34;21.00;72.20
19256;DHT22;9762;52.490;13.410;2022-07-29T06:15:00;21.10;72.10
19256;DHT22;9762;52.490;13.410;2022-07-29T06:17:25;21.10;72.10
19256;DHT22;9762;52.490;13.410;2022-07-29T06:19:51;21.20;72.10
19256;DHT22;9762;52.490;13.410;2022-07-29T06:22:16;21.30;71.90
19256;DHT22;9762;52.490;13.410;2022-07-29T06:24:42;21.40;71.60
19256;DHT22;9762;52.490;13.410;2022-07-29T06:27:10;21.40;71.40
19256;DHT22;9762;52.490;13.410;2022-07-29T06:29:36;21.50;70.90
19256;DHT22;9762;52.490;13.410;2022-07-29T06:32:02;21.50;70.80
19256;DHT22;9762;52.490;13.410;2022-07-29T06:34:27;21.50;70.80
19256;DHT22;9762;52.490;13.410;2022-07-29T06:36:53;21.60;70.30
19256;DHT22;9762;52.490;13.410;2022-07-29T06:39:19;21.70;70.10
19256;DHT22;9762;52.490;13.410;2022-07-29T06:41:47;21.70;70.00
19256;DHT22;9762;52.490;13.410;2022-07-29T06:44:14;21.80;69.90
19256;DHT22;9762;52.490;13.410;2022-07-29T06:46:40;21.90;69.70
19256;DHT22;9762;52.490;13.410;2022-07-29T06:49:05;21.90;69.40
19256;DHT22;9762;52.490;13.410;2022-07-29T06:51:31;21.90;69.00
19256;DHT22;9762;52.490;13.410;2022-07-29T06:53:57;22.00;69.00
19256;DHT22;9762;52.490;13.410;2022-07-29T06:56:22;22.00;69.00
19256;DHT22;9762;52.490;13.410;2022-07-29T06:58:48;22.10;68.80
19256;DHT22;9762;52.490;13.410;2022-07-29T07:01:14;22.10;68.80
19256;DHT22;9762;52.490;13.410;2022-07-29T07:03:39;22.20;68.50
19256;DHT22;9762;52.490;13.410;2022-07-29T07:06:05;22.30;68.40
19256;DHT22;9762;52.490;13.410;2022-07-29T07:08:30;22.30;68.00
19256;DHT22;9762;52.490;13.410;2022-07-29T07:10:56;22.40;67.90
19256;DHT22;9762;52.490;13.410;2022-07-29T07:13:22;22.50;67.80
19256;DHT22;9762;52.490;13.410;2022-07-29T07:15:48;22.60;67.80
19256;DHT22;9762;52.490;13.410;2022-07-29T07:18:15;22.70;67.90
19256;DHT22;9762;52.490;13.410;2022-07-29T07:20:41;22.80;69.40
19256;DHT22;9762;52.490;13.410;2022-07-29T07:23:07;22.90;69.60
19256;DHT22;9762;52.490;13.410;2022-07-29T07:25:33;22.90;70.70
19256;DHT22;9762;52.490;13.410;2022-07-29T07:27:58;23.00;71.50
19256;DHT22;9762;52.490;13.410;2022-07-29T07:30:24;23.00;72.40
19256;DHT22;9762;52.490;13.410;2022-07-29T07:32:50;23.00;73.80
19256;DHT22;9762;52.490;13.410;2022-07-29T07:35:16;23.00;73.80
19256;DHT22;9762;52.490;13.410;2022-07-29T07:37:41;23.00;74.00
19256;DHT22;9762;52.490;13.410;2022-07-29T07:40:08;22.90;74.00
19256;DHT22;9762;52.490;13.410;2022-07-29T07:42:34;23.10;74.30
19256;DHT22;9762;52.490;13.410;2022-07-29T07:45:00;23.10;74.60
19256;DHT22;9762;52.490;13.410;2022-07-29T07:47:26;23.10;74.70
19256;DHT22;9762;52.490;13.410;2022-07-29T07:49:52;23.20;75.40
19256;DHT22;9762;52.490;13.410;2022-07-29T07:52:20;23.30;65.90
19256;DHT22;9762;52.490;13.410;2022-07-29T07:54:46;23.40;65.50
19256;DHT22;9762;52.490;13.410;2022-07-29T07:57:12;23.50;65.50
19256;DHT22;9762;52.490;13.410;2022-07-29T07:59:38;23.60;64.80
19256;DHT22;9762;52.490;13.410;2022-07-29T08:02:05;23.60;64.60
19256;DHT22;9762;52.490;13.410;2022-07-29T08:04:31;23.80;64.80
19256;DHT22;9762;52.490;13.410;2022-07-29T08:06:58;23.90;64.50
19256;DHT22;9762;52.490;13.410;2022-07-29T08:09:25;24.00;64.00
19256;DHT22;9762;52.490;13.410;2022-07-29T08:11:51;24.20;63.00
19256;DHT22;9762;52.490;13.410;2022-07-29T08:14:17;24.30;63.30
19256;DHT22;9762;52.490;13.410;2022-07-29T08:16:43;24.40;62.80
19256;DHT22;9762;52.490;13.410;2022-07-29T08:19:09;24.50;63.80
19256;DHT22;9762;52.490;13.410;2022-07-29T08:24:01;24.60;60.80
19256;DHT22;9762;52.490;13.410;2022-07-29T08:26:45;24.60;61.60
19256;DHT22;9762;52.490;13.410;2022-07-29T08:29:12;24.70;61.10
19256;DHT22;9762;52.490;13.410;2022-07-29T08:31:38;24.90;60.90
19256;DHT22;9762;52.490;13.410;2022-07-29T08:34:04;24.90;60.60
19256;DHT22;9762;52.490;13.410;2022-07-29T08:36:30;25.00;60.30
19256;DHT22;9762;52.490;13.410;2022-07-29T08:38:56;25.10;60.20
19256;DHT22;9762;52.490;13.410;2022-07-29T08:41:22;25.20;59.90
19256;DHT22;9762;52.490;13.410;2022-07-29T08:43:48;25.20;59.80
19256;DHT22;9762;52.490;13.410;2022-07-29T08:46:15;25.30;59.70
19256;DHT22;9762;52.490;13.410;2022-07-29T08:48:42;25.30;59.50
19256;DHT22;9762;52.490;13.410;2022-07-29T08:51:08;25.40;59.60
19256;DHT22;9762;52.490;13.410;2022-07-29T08:53:34;25.50;59.40
19256;DHT22;9762;52.490;13.410;2022-07-29T08:56:03;25.50;58.70
19256;DHT22;9762;52.490;13.410;2022-07-29T08:58:32;25.60;58.70
19256;DHT22;9762;52.490;13.410;2022-07-29T09:01:01;25.70;58.40
19256;DHT22;9762;52.490;13.410;2022-07-29T09:03:31;25.60;57.80
19256;DHT22;9762;52.490;13.410;2022-07-29T09:05:58;25.60;57.80
19256;DHT22;9762;52.490;13.410;2022-07-29T09:08:25;25.60;57.70
19256;DHT22;9762;52.490;13.410;2022-07-29T09:10:50;25.60;57.20
19256;DHT22;9762;52.490;13.410;2022-07-29T09:13:17;25.60;57.20
19256;DHT22;9762;52.490;13.410;2022-07-29T09:15:43;25.60;57.30
19256;DHT22;9762;52.490;13.410;2022-07-29T09:18:09;25.70;57.30
19256;DHT22;9762;52.490;13.410;2022-07-29T09:20:35;25.70;57.40
19256;DHT22;9762;52.490;13.410;2022-07-29T09:23:19;25.80;57.40
19256;DHT22;9762;52.490;13.410;2022-07-29T09:25:44;25.90;57.50
19256;DHT22;9762;52.490;13.410;2022-07-29T09:28:12;26.00;57.70
19256;DHT22;9762;52.490;13.410;2022-07-29T09:30:52;26.00;58.00
19256;DHT22;9762;52.490;13.410;2022-07-29T09:33:18;26.10;58.50
19256;DHT22;9762;52.490;13.410;2022-07-29T09:35:44;26.20;60.20
19256;DHT22;9762;52.490;13.410;2022-07-29T09:38:13;26.30;62.60
19256;DHT22;9762;52.490;13.410;2022-07-29T09:40:39;26.40;62.00
19256;DHT22;9762;52.490;13.410;2022-07-29T09:43:12;26.50;62.60
19256;DHT22;9762;52.490;13.410;2022-07-29T09:45:39;26.50;61.90
19256;DHT22;9762;52.490;13.410;2022-07-29T09:48:19;26.60;55.40
19256;DHT22;9762;52.490;13.410;2022-07-29T09:50:46;26.60;54.80
19256;DHT22;9762;52.490;13.410;2022-07-29T09:53:33;26.60;54.60
19256;DHT22;9762;52.490;13.410;2022-07-29T09:55:59;26.70;54.80
19256;DHT22;9762;52.490;13.410;2022-07-29T09:58:24;26.80;54.70
19256;DHT22;9762;52.490;13.410;2022-07-29T10:00:52;26.90;54.20
19256;DHT22;9762;52.490;13.410;2022-07-29T10:03:18;26.90;54.10
19256;DHT22;9762;52.490;13.410;2022-07-29T10:05:45;27.00;54.10
19256;DHT22;9762;52.490;13.410;2022-07-29T10:08:11;27.10;54.40
19256;DHT22;9762;52.490;13.410;2022-07-29T10:10:41;27.20;53.20
19256;DHT22;9762;52.490;13.410;2022-07-29T10:13:10;27.20;53.20
19256;DHT22;9762;52.490;13.410;2022-07-29T10:15:40;27.30;52.30
19256;DHT22;9762;52.490;13.410;2022-07-29T10:18:09;27.30;51.90
19256;DHT22;9762;52.490;13.410;2022-07-29T10:20:36;27.40;51.30
19256;DHT22;9762;52.490;13.410;2022-07-29T10:23:02;27.50;51.40
19256;DHT22;9762;52.490;13.410;2022-07-29T10:25:27;27.60;51.00
19256;DHT22;9762;52.490;13.410;2022-07-29T10:27:54;27.70;50.60
19256;DHT22;9762;52.490;13.410;2022-07-29T10:30:21;27.70;51.00
19256;DHT22;9762;52.490;13.410;2022-07-29T10:33:08;27.80;51.10
19256;DHT22;9762;52.490;13.410;2022-07-29T10:38:51;28.00;49.60
19256;DHT22;9762;52.490;13.410;2022-07-29T10:43:56;28.10;49.50
19256;DHT22;9762;52.490;13.410;2022-07-29T10:46:22;28.10;49.70
19256;DHT22;9762;52.490;13.410;2022-07-29T10:52:08;28.30;49.70
19256;DHT22;9762;52.490;13.410;2022-07-29T10:54:48;28.40;51.20
19256;DHT22;9762;52.490;13.410;2022-07-29T10:57:24;28.60;52.50
19256;DHT22;9762;52.490;13.410;2022-07-29T11:05:06;28.90;56.80
19256;DHT22;9762;52.490;13.410;2022-07-29T11:07:34;29.00;48.10
19256;DHT22;9762;52.490;13.410;2022-07-29T11:20:44;28.90;47.70
19256;DHT22;9762;52.490;13.410;2022-07-29T11:31:46;28.90;48.20
19256;DHT22;9762;52.490;13.410;2022-07-29T11:39:35;29.10;48.60
19256;DHT22;9762;52.490;13.410;2022-07-29T11:47:23;29.60;63.00
19256;DHT22;9762;52.490;13.410;2022-07-29T11:49:50;29.60;61.70
19256;DHT22;9762;52.490;13.410;2022-07-29T11:52:20;29.80;60.80
19256;DHT22;9762;52.490;13.410;2022-07-29T11:54:47;29.90;59.40
19256;DHT22;9762;52.490;13.410;2022-07-29T11:57:15;30.20;60.90
19256;DHT22;9762;52.490;13.410;2022-07-29T11:59:44;30.40;61.10
19256;DHT22;9762;52.490;13.410;2022-07-29T12:04:55;30.70;47.20
19256;DHT22;9762;52.490;13.410;2022-07-29T12:07:29;30.90;48.20
19256;DHT22;9762;52.490;13.410;2022-07-29T12:09:55;31.10;48.40
19256;DHT22;9762;52.490;13.410;2022-07-29T12:12:21;31.30;48.10
19256;DHT22;9762;52.490;13.410;2022-07-29T12:14:47;31.60;47.00
19256;DHT22;9762;52.490;13.410;2022-07-29T12:17:32;31.80;47.20
19256;DHT22;9762;52.490;13.410;2022-07-29T12:25:13;32.40;80.70
19256;DHT22;9762;52.490;13.410;2022-07-29T12:30:17;32.70;46.80
19256;DHT22;9762;52.490;13.410;2022-07-29T12:32:45;33.00;55.20
19256;DHT22;9762;52.490;13.410;2022-07-29T12:35:14;33.10;50.00
19256;DHT22;9762;52.490;13.410;2022-07-29T12:37:43;33.30;45.00
19256;DHT22;9762;52.490;13.410;2022-07-29T12:40:11;33.50;44.00
19256;DHT22;9762;52.490;13.410;2022-07-29T12:45:04;34.00;75.30
19256;DHT22;9762;52.490;13.410;2022-07-29T12:47:31;34.10;43.50
19256;DHT22;9762;52.490;13.410;2022-07-29T12:50:10;34.20;43.00
19256;DHT22;9762;52.490;13.410;2022-07-29T12:52:37;34.20;42.80
19256;DHT22;9762;52.490;13.410;2022-07-29T12:55:03;34.10;42.90
19256;DHT22;9762;52.490;13.410;2022-07-29T12:57:29;34.10;42.90
19256;DHT22;9762;52.490;13.410;2022-07-29T13:02:28;34.40;43.00
19256;DHT22;9762;52.490;13.410;2022-07-29T13:04:56;34.70;42.80
19256;DHT22;9762;52.490;13.410;2022-07-29T13:07:30;35.00;43.10
19256;DHT22;9762;52.490;13.410;2022-07-29T13:12:37;35.70;41.60
19256;DHT22;9762;52.490;13.410;2022-07-29T13:15:16;35.90;41.20
19256;DHT22;9762;52.490;13.410;2022-07-29T13:17:42;36.10;41.00
19256;DHT22;9762;52.490;13.410;2022-07-29T13:20:11;36.20;40.50
19256;DHT22;9762;52.490;13.410;2022-07-29T13:22:41;36.30;40.20
19256;DHT22;9762;52.490;13.410;2022-07-29T13:25:08;36.30;39.90
19256;DHT22;9762;52.490;13.410;2022-07-29T13:27:36;36.20;40.20
19256;DHT22;9762;52.490;13.410;2022-07-29T13:30:04;36.20;40.50
19256;DHT22;9762;52.490;13.410;2022-07-29T13:32:31;36.20;39.90
19256;DHT22;9762;52.490;13.410;2022-07-29T13:34:59;36.20;39.90
19256;DHT22;9762;52.490;13.410;2022-07-29T13:37:25;36.30;40.40
19256;DHT22;9762;52.490;13.410;2022-07-29T13:39:51;36.30;39.90
19256;DHT22;9762;52.490;13.410;2022-07-29T13:42:18;36.40;40.10
19256;DHT22;9762;52.490;13.410;2022-07-29T13:44:44;36.50;40.10
19256;DHT22;9762;52.490;13.410;2022-07-29T13:47:09;36.70;40.30
19256;DHT22;9762;52.490;13.410;2022-07-29T13:49:35;36.90;50.80
19256;DHT22;9762;52.490;13.410;2022-07-29T13:52:01;37.10;51.50
19256;DHT22;9762;52.490;13.410;2022-07-29T13:54:26;37.50;56.10
19256;DHT22;9762;52.490;13.410;2022-07-29T13:56:52;37.80;39.90
19256;DHT22;9762;52.490;13.410;2022-07-29T13:59:18;38.00;38.00
19256;DHT22;9762;52.490;13.410;2022-07-29T14:01:43;38.10;37.70
19256;DHT22;9762;52.490;13.410;2022-07-29T14:04:10;38.20;37.60
19256;DHT22;9762;52.490;13.410;2022-07-29T14:06:36;38.40;37.40
19256;DHT22;9762;52.490;13.410;2022-07-29T14:09:03;38.50;37.40
19256;DHT22;9762;52.490;13.410;2022-07-29T14:11:31;38.50;37.40
19256;DHT22;9762;52.490;13.410;2022-07-29T14:13:57;38.70;37.40
19256;DHT22;9762;52.490;13.410;2022-07-29T14:16:23;38.90;37.20
19256;DHT22;9762;52.490;13.410;2022-07-29T14:18:48;39.10;37.20
19256;DHT22;9762;52.490;13.410;2022-07-29T14:21:14;39.30;36.80
19256;DHT22;9762;52.490;13.410;2022-07-29T14:23:39;39.50;36.00
19256;DHT22;9762;52.490;13.410;2022-07-29T14:26:06;39.60;35.80
19256;DHT22;9762;52.490;13.410;2022-07-29T14:28:31;39.70;36.00
19256;DHT22;9762;52.490;13.410;2022-07-29T14:30:57;39.70;35.60
19256;DHT22;9762;52.490;13.410;2022-07-29T14:33:23;39.80;35.10
19256;DHT22;9762;52.490;13.410;2022-07-29T14:35:48;39.90;34.50
19256;DHT22;9762;52.490;13.410;2022-07-29T14:38:14;39.90;34.50
19256;DHT22;9762;52.490;13.410;2022-07-29T14:40:39;39.90;35.10
19256;DHT22;9762;52.490;13.410;2022-07-29T14:43:05;39.90;35.20
19256;DHT22;9762;52.490;13.410;2022-07-29T14:45:31;39.60;35.30
19256;DHT22;9762;52.490;13.410;2022-07-29T14:47:56;39.30;35.70
19256;DHT22;9762;52.490;13.410;2022-07-29T14:50:22;38.80;35.80
19256;DHT22;9762;52.490;13.410;2022-07-29T14:52:48;38.40;36.30
19256;DHT22;9762;52.490;13.410;2022-07-29T14:55:13;38.10;36.50
19256;DHT22;9762;52.490;13.410;2022-07-29T14:57:39;37.70;37.00
19256;DHT22;9762;52.490;13.410;2022-07-29T15:00:06;37.40;37.50
19256;DHT22;9762;52.490;13.410;2022-07-29T15:02:33;37.30;37.70
19256;DHT22;9762;52.490;13.410;2022-07-29T15:04:58;37.30;37.70
19256;DHT22;9762;52.490;13.410;2022-07-29T15:07:24;37.50;37.80
19256;DHT22;9762;52.490;13.410;2022-07-29T15:09:49;37.60;37.30
19256;DHT22;9762;52.490;13.410;2022-07-29T15:12:15;37.60;37.50
19256;DHT22;9762;52.490;13.410;2022-07-29T15:14:41;37.60;37.40
19256;DHT22;9762;52.490;13.410;2022-07-29T15:17:06;37.50;37.00
19256;DHT22;9762;52.490;13.410;2022-07-29T15:19:32;37.40;37.20
19256;DHT22;9762;52.490;13.410;2022-07-29T15:21:58;37.30;37.10
19256;DHT22;9762;52.490;13.410;2022-07-29T15:24:23;37.20;37.40
19256;DHT22;9762;52.490;13.410;2022-07-29T15:26:49;37.00;37.50
19256;DHT22;9762;52.490;13.410;2022-07-29T15:29:14;37.00;37.50
19256;DHT22;9762;52.490;13.410;2022-07-29T15:31:40;37.00;37.60
19256;DHT22;9762;52.490;13.410;2022-07-29T15:34:06;36.90;37.60
19256;DHT22;9762;52.490;13.410;2022-07-29T15:36:31;36.90;37.80
19256;DHT22;9762;52.490;13.410;2022-07-29T15:38:57;36.70;37.70
19256;DHT22;9762;52.490;13.410;2022-07-29T15:41:23;36.60;37.90
19256;DHT22;9762;52.490;13.410;2022-07-29T15:43:48;36.60;37.70
19256;DHT22;9762;52.490;13.410;2022-07-29T15:46:15;36.60;37.70
19256;DHT22;9762;52.490;13.410;2022-07-29T15:49:01;36.50;37.70
19256;DHT22;9762;52.490;13.410;2022-07-29T15:51:26;36.30;37.80
19256;DHT22;9762;52.490;13.410;2022-07-29T15:53:52;36.00;38.20
19256;DHT22;9762;52.490;13.410;2022-07-29T15:56:18;35.80;38.30
19256;DHT22;9762;52.490;13.410;2022-07-29T15:58:43;35.60;38.60
19256;DHT22;9762;52.490;13.410;2022-07-29T16:01:09;35.30;39.10
19256;DHT22;9762;52.490;13.410;2022-07-29T16:03:35;35.10;39.10
19256;DHT22;9762;52.490;13.410;2022-07-29T16:06:01;35.00;39.60
19256;DHT22;9762;52.490;13.410;2022-07-29T16:08:26;34.70;39.80
19256;DHT22;9762;52.490;13.410;2022-07-29T16:10:52;34.50;40.10
19256;DHT22;9762;52.490;13.410;2022-07-29T16:13:17;34.20;40.40
19256;DHT22;9762;52.490;13.410;2022-07-29T16:15:44;33.80;40.80
19256;DHT22;9762;52.490;13.410;2022-07-29T16:18:09;33.60;41.20
19256;DHT22;9762;52.490;13.410;2022-07-29T16:20:35;33.30;41.50
19256;DHT22;9762;52.490;13.410;2022-07-29T16:23:01;33.20;42.90
19256;DHT22;9762;52.490;13.410;2022-07-29T16:25:27;33.00;45.50
19256;DHT22;9762;52.490;13.410;2022-07-29T16:27:53;32.90;46.30
19256;DHT22;9762;52.490;13.410;2022-07-29T16:30:18;32.70;46.30
19256;DHT22;9762;52.490;13.410;2022-07-29T16:32:44;32.50;42.70
19256;DHT22;9762;52.490;13.410;2022-07-29T16:35:10;32.40;42.70
19256;DHT22;9762;52.490;13.410;2022-07-29T16:37:36;32.20;47.60
19256;DHT22;9762;52.490;13.410;2022-07-29T16:40:06;32.10;43.30
19256;DHT22;9762;52.490;13.410;2022-07-29T16:42:32;31.90;43.50
19256;DHT22;9762;52.490;13.410;2022-07-29T16:44:58;31.70;44.30